PWSweather.com
Personal Weather Stations
Station Observations
KCTHAMDEN
Dunbar Hill, Hamden, CT 06514

Dunbar HillHamden, CT 06514

Lat: 41.365437, Lon: -72.956532

Elevation: 200

Station Type: Davis Vantage Pro2+

www.hamdenweather.com

High Low Average
Temperature 43.2°F6.2°C 29.8°F-1.2°C 35.3°F1.8°C
Dew Point 29.9°F-1.2°C 22.7°F-5.2°C 25.4°F-3.7°C
Winds 8.7 mph 14.0 kmh Calm Calm 3.0 mph S4.8 kmh S
Wind Gusts 16.0 mph25.7 kmh -- 6.0 mph9.7 kmh
Humidity 81% 48% 68%
Pressure 29.60 in1002.4 mb 29.45 in997.3 mb -
Precipitation 0.00 in0.0 mm - -
Hour Temp Dew Point Humidity Winds Wind Gusts Pressure Precip Precip Rate Daily Precip Total
12:00 AM 33.0°F0.6°C 25.3°F-3.7°C 73% 4.4 mph SW7.1 kmh SW 14.0 mph22.5 kmh 29.61 in1002.7 mb - 0.00 in0.0 mm 0.00 in0.0 mm
12:15 AM 32.8°F0.4°C 25.1°F-3.8°C 73% 0.1 mph WSW0.2 kmh WSW 1.0 mph1.6 kmh 29.61 in1002.7 mb - 0.00 in0.0 mm 0.00 in0.0 mm
12:30 AM 32.6°F0.3°C 24.9°F-3.9°C 73% 1.0 mph SW1.6 kmh SW 9.0 mph14.5 kmh 29.60 in1002.4 mb - 0.00 in0.0 mm 0.00 in0.0 mm
12:45 AM 32.5°F0.3°C 24.5°F-4.2°C 72% 1.8 mph SW2.9 kmh SW 4.0 mph6.4 kmh 29.60 in1002.4 mb - 0.00 in0.0 mm 0.00 in0.0 mm
01:00 AM 32.3°F0.2°C 24.3°F-4.3°C 72% 0.7 mph SSW1.1 kmh SSW 2.0 mph3.2 kmh 29.60 in1002.4 mb - 0.00 in0.0 mm 0.00 in0.0 mm
01:15 AM 32.0°F0.0°C 24.3°F-4.3°C 73% 2.0 mph S3.2 kmh S 4.0 mph6.4 kmh 29.60 in1002.4 mb - 0.00 in0.0 mm 0.00 in0.0 mm
01:30 AM 31.7°F-0.2°C 23.7°F-4.6°C 72% 2.2 mph SSW3.5 kmh SSW 10.0 mph16.1 kmh 29.60 in1002.4 mb - 0.00 in0.0 mm 0.00 in0.0 mm
01:45 AM 31.5°F-0.3°C 23.8°F-4.6°C 73% 0.4 mph SW0.6 kmh SW 2.0 mph3.2 kmh 29.60 in1002.4 mb - 0.00 in0.0 mm 0.00 in0.0 mm
02:00 AM 31.5°F-0.3°C 23.8°F-4.6°C 73% Calm Calm -- 29.60 in1002.4 mb - 0.00 in0.0 mm 0.00 in0.0 mm
02:15 AM 31.4°F-0.3°C 23.7°F-4.6°C 73% 1.2 mph S1.9 kmh S 8.0 mph12.9 kmh 29.60 in1002.4 mb - 0.00 in0.0 mm 0.00 in0.0 mm
02:30 AM 31.1°F-0.5°C 23.5°F-4.7°C 73% 1.4 mph SE2.3 kmh SE -- 29.59 in1002.0 mb - 0.00 in0.0 mm 0.00 in0.0 mm
02:45 AM 31.0°F-0.6°C 23.4°F-4.8°C 73% 0.7 mph S1.1 kmh S 3.0 mph4.8 kmh 29.59 in1002.0 mb - 0.00 in0.0 mm 0.00 in0.0 mm
03:00 AM 30.9°F-0.6°C 23.3°F-4.8°C 73% Calm Calm -- 29.59 in1002.0 mb - 0.00 in0.0 mm 0.00 in0.0 mm
03:15 AM 30.8°F-0.7°C 23.2°F-4.9°C 73% 0.1 mph SSW0.2 kmh SSW -- 29.58 in1001.7 mb - 0.00 in0.0 mm 0.00 in0.0 mm
03:30 AM 30.7°F-0.7°C 23.1°F-4.9°C 73% 0.9 mph S1.4 kmh S 7.0 mph11.3 kmh 29.58 in1001.7 mb - 0.00 in0.0 mm 0.00 in0.0 mm
03:45 AM 30.5°F-0.8°C 22.9°F-5.1°C 73% Calm Calm 2.0 mph3.2 kmh 29.57 in1001.4 mb - 0.00 in0.0 mm 0.00 in0.0 mm
04:00 AM 30.5°F-0.8°C 22.9°F-5.1°C 73% 1.2 mph NE1.9 kmh NE 2.0 mph3.2 kmh 29.57 in1001.4 mb - 0.00 in0.0 mm 0.00 in0.0 mm
04:15 AM 30.3°F-0.9°C 22.7°F-5.2°C 73% 0.9 mph SSW1.4 kmh SSW 3.0 mph4.8 kmh 29.57 in1001.4 mb - 0.00 in0.0 mm 0.00 in0.0 mm
04:30 AM 30.3°F-0.9°C 22.7°F-5.2°C 73% 0.9 mph E1.4 kmh E -- 29.57 in1001.4 mb - 0.00 in0.0 mm 0.00 in0.0 mm
04:45 AM 30.1°F-1.1°C 22.8°F-5.1°C 74% 0.1 mph SSE0.2 kmh SSE -- 29.57 in1001.4 mb - 0.00 in0.0 mm 0.00 in0.0 mm
05:00 AM 30.2°F-1.0°C 23.0°F-5.0°C 74% 2.2 mph SW3.5 kmh SW 10.0 mph16.1 kmh 29.57 in1001.4 mb - 0.00 in0.0 mm 0.00 in0.0 mm
05:15 AM 30.6°F-0.8°C 23.0°F-5.0°C 73% 1.4 mph E2.3 kmh E 4.0 mph6.4 kmh 29.57 in1001.4 mb - 0.00 in0.0 mm 0.00 in0.0 mm
05:30 AM 30.7°F-0.7°C 23.1°F-4.9°C 73% 0.3 mph SSW0.5 kmh SSW 7.0 mph11.3 kmh 29.57 in1001.4 mb - 0.00 in0.0 mm 0.00 in0.0 mm
05:45 AM 30.8°F-0.7°C 22.8°F-5.1°C 72% 1.0 mph SE1.6 kmh SE 7.0 mph11.3 kmh 29.57 in1001.4 mb - 0.00 in0.0 mm 0.00 in0.0 mm
06:00 AM 30.6°F-0.8°C 23.0°F-5.0°C 73% 1.1 mph WSW1.8 kmh WSW 7.0 mph11.3 kmh 29.56 in1001.0 mb - 0.00 in0.0 mm 0.00 in0.0 mm
06:15 AM 30.3°F-0.9°C 22.7°F-5.2°C 73% Calm Calm 3.0 mph4.8 kmh 29.57 in1001.4 mb - 0.00 in0.0 mm 0.00 in0.0 mm
06:30 AM 30.1°F-1.1°C 22.8°F-5.1°C 74% Calm Calm -- 29.56 in1001.0 mb - 0.00 in0.0 mm 0.00 in0.0 mm
06:45 AM 30.1°F-1.1°C 22.8°F-5.1°C 74% Calm Calm 1.0 mph1.6 kmh 29.56 in1001.0 mb - 0.00 in0.0 mm 0.00 in0.0 mm
07:00 AM 30.0°F-1.1°C 22.7°F-5.2°C 74% 0.1 mph SW0.2 kmh SW 1.0 mph1.6 kmh 29.56 in1001.0 mb - 0.00 in0.0 mm 0.00 in0.0 mm
07:15 AM 29.8°F-1.2°C 22.8°F-5.1°C 75% 0.1 mph S0.2 kmh S 2.0 mph3.2 kmh 29.57 in1001.4 mb - 0.00 in0.0 mm 0.00 in0.0 mm
07:30 AM 29.8°F-1.2°C 22.8°F-5.1°C 75% Calm Calm 1.0 mph1.6 kmh 29.57 in1001.4 mb - 0.00 in0.0 mm 0.00 in0.0 mm
07:45 AM 29.9°F-1.2°C 23.3°F-4.8°C 76% 0.1 mph S0.2 kmh S 1.0 mph1.6 kmh 29.57 in1001.4 mb - 0.00 in0.0 mm 0.00 in0.0 mm
08:00 AM 30.5°F-0.8°C 23.5°F-4.7°C 75% 1.1 mph E1.8 kmh E -- 29.57 in1001.4 mb - 0.00 in0.0 mm 0.00 in0.0 mm
08:15 AM 31.3°F-0.4°C 23.7°F-4.6°C 73% Calm Calm -- 29.57 in1001.4 mb - 0.00 in0.0 mm 0.00 in0.0 mm
08:30 AM 32.4°F0.2°C 24.1°F-4.4°C 71% 3.5 mph S5.6 kmh S 7.0 mph11.3 kmh 29.57 in1001.4 mb - 0.00 in0.0 mm 0.00 in0.0 mm
08:45 AM 33.7°F0.9°C 24.3°F-4.3°C 68% 6.6 mph S10.6 kmh S 8.0 mph12.9 kmh 29.57 in1001.4 mb - 0.00 in0.0 mm 0.00 in0.0 mm
09:00 AM 35.0°F1.7°C 24.8°F-4.0°C 66% 2.9 mph SW4.7 kmh SW 8.0 mph12.9 kmh 29.56 in1001.0 mb - 0.00 in0.0 mm 0.00 in0.0 mm
09:15 AM 36.0°F2.2°C 24.2°F-4.3°C 62% 7.6 mph S12.2 kmh S 14.0 mph22.5 kmh 29.57 in1001.4 mb - 0.00 in0.0 mm 0.00 in0.0 mm
09:30 AM 36.4°F2.4°C 24.6°F-4.1°C 62% 2.9 mph SE4.7 kmh SE 7.0 mph11.3 kmh 29.57 in1001.4 mb - 0.00 in0.0 mm 0.00 in0.0 mm
09:45 AM 37.1°F2.8°C 24.8°F-4.0°C 61% 2.9 mph S4.7 kmh S 4.0 mph6.4 kmh 29.56 in1001.0 mb - 0.00 in0.0 mm 0.00 in0.0 mm
10:00 AM 37.8°F3.2°C 24.3°F-4.3°C 58% 4.2 mph S6.8 kmh S 5.0 mph8.0 kmh 29.56 in1001.0 mb - 0.00 in0.0 mm 0.00 in0.0 mm
10:15 AM 38.4°F3.6°C 24.5°F-4.2°C 57% 3.7 mph SSE6.0 kmh SSE 8.0 mph12.9 kmh 29.56 in1001.0 mb - 0.00 in0.0 mm 0.00 in0.0 mm
10:30 AM 39.2°F4.0°C 24.8°F-4.0°C 56% 4.6 mph S7.4 kmh S 14.0 mph22.5 kmh 29.55 in1000.7 mb - 0.00 in0.0 mm 0.00 in0.0 mm
10:45 AM 39.6°F4.2°C 25.2°F-3.8°C 56% 4.4 mph SE7.1 kmh SE 7.0 mph11.3 kmh 29.55 in1000.7 mb - 0.00 in0.0 mm 0.00 in0.0 mm
11:00 AM 39.7°F4.3°C 24.8°F-4.0°C 55% 4.0 mph S6.4 kmh S 7.0 mph11.3 kmh 29.55 in1000.7 mb - 0.00 in0.0 mm 0.00 in0.0 mm
11:15 AM 40.0°F4.4°C 24.7°F-4.1°C 54% 8.7 mph S14.0 kmh S 15.0 mph24.1 kmh 29.54 in1000.3 mb - 0.00 in0.0 mm 0.00 in0.0 mm
11:30 AM 40.8°F4.9°C 25.4°F-3.7°C 54% 1.8 mph SE2.9 kmh SE 3.0 mph4.8 kmh 29.54 in1000.3 mb - 0.00 in0.0 mm 0.00 in0.0 mm
11:45 AM 41.3°F5.2°C 25.4°F-3.7°C 53% 4.0 mph SSW6.4 kmh SSW 15.0 mph24.1 kmh 29.54 in1000.3 mb - 0.00 in0.0 mm 0.00 in0.0 mm
12:00 PM 41.4°F5.2°C 24.6°F-4.1°C 51% 2.8 mph SSE4.5 kmh SSE 4.0 mph6.4 kmh 29.53 in1000.0 mb - 0.00 in0.0 mm 0.00 in0.0 mm
12:15 PM 42.1°F5.6°C 25.8°F-3.4°C 52% 3.1 mph SSW5.0 kmh SSW 5.0 mph8.0 kmh 29.53 in1000.0 mb - 0.00 in0.0 mm 0.00 in0.0 mm
12:30 PM 40.4°F4.7°C 23.7°F-4.6°C 51% 2.3 mph SE3.7 kmh SE 4.0 mph6.4 kmh 29.53 in1000.0 mb - 0.00 in0.0 mm 0.00 in0.0 mm
12:45 PM 40.4°F4.7°C 24.1°F-4.4°C 52% 1.5 mph S2.4 kmh S 3.0 mph4.8 kmh 29.52 in999.7 mb - 0.00 in0.0 mm 0.00 in0.0 mm
01:00 PM 41.1°F5.1°C 23.9°F-4.5°C 50% 3.8 mph SSW6.1 kmh SSW 7.0 mph11.3 kmh 29.51 in999.3 mb - 0.00 in0.0 mm 0.00 in0.0 mm
01:15 PM 42.9°F6.1°C 26.0°F-3.3°C 51% 5.4 mph SE8.7 kmh SE 11.0 mph17.7 kmh 29.51 in999.3 mb - 0.00 in0.0 mm 0.00 in0.0 mm
01:30 PM 43.2°F6.2°C 24.8°F-4.0°C 48% 6.1 mph SE9.8 kmh SE 5.0 mph8.0 kmh 29.50 in999.0 mb - 0.00 in0.0 mm 0.00 in0.0 mm
01:45 PM 42.1°F5.6°C 24.8°F-4.0°C 50% 6.6 mph WSW10.6 kmh WSW 9.0 mph14.5 kmh 29.50 in999.0 mb - 0.00 in0.0 mm 0.00 in0.0 mm
02:00 PM 41.5°F5.3°C 25.2°F-3.8°C 52% 2.6 mph SSE4.2 kmh SSE 6.0 mph9.7 kmh 29.49 in998.6 mb - 0.00 in0.0 mm 0.00 in0.0 mm
02:15 PM 41.3°F5.2°C 24.0°F-4.4°C 50% 3.6 mph E5.8 kmh E 7.0 mph11.3 kmh 29.48 in998.3 mb - 0.00 in0.0 mm 0.00 in0.0 mm
02:30 PM 41.4°F5.2°C 24.1°F-4.4°C 50% 6.4 mph ESE10.3 kmh ESE 9.0 mph14.5 kmh 29.47 in998.0 mb - 0.00 in0.0 mm 0.00 in0.0 mm
02:45 PM 42.0°F5.6°C 25.6°F-3.6°C 52% 7.1 mph ESE11.4 kmh ESE 12.0 mph19.3 kmh 29.47 in998.0 mb - 0.00 in0.0 mm 0.00 in0.0 mm
03:00 PM 42.2°F5.7°C 26.3°F-3.2°C 53% 3.8 mph S6.1 kmh S 6.0 mph9.7 kmh 29.47 in998.0 mb - 0.00 in0.0 mm 0.00 in0.0 mm
03:15 PM 41.5°F5.3°C 25.2°F-3.8°C 52% 4.0 mph SE6.4 kmh SE 8.0 mph12.9 kmh 29.46 in997.6 mb - 0.00 in0.0 mm 0.00 in0.0 mm
03:30 PM 42.0°F5.6°C 25.6°F-3.6°C 52% 5.9 mph SSW9.5 kmh SSW 8.0 mph12.9 kmh 29.46 in997.6 mb - 0.00 in0.0 mm 0.00 in0.0 mm
03:45 PM 41.3°F5.2°C 27.2°F-2.7°C 57% 3.6 mph E5.8 kmh E 6.0 mph9.7 kmh 29.46 in997.6 mb - 0.00 in0.0 mm 0.00 in0.0 mm
04:00 PM 40.6°F4.8°C 27.0°F-2.8°C 58% 3.6 mph SSE5.8 kmh SSE 6.0 mph9.7 kmh 29.46 in997.6 mb - 0.00 in0.0 mm 0.00 in0.0 mm
04:15 PM 40.6°F4.8°C 26.9°F-2.8°C 58% 4.6 mph S7.4 kmh S 7.0 mph11.3 kmh 29.46 in997.6 mb - 0.00 in0.0 mm 0.00 in0.0 mm
04:30 PM 40.0°F4.4°C 26.0°F-3.3°C 57% 4.9 mph SSW7.9 kmh SSW 12.0 mph19.3 kmh 29.45 in997.3 mb - 0.00 in0.0 mm 0.00 in0.0 mm
04:45 PM 39.5°F4.2°C 26.3°F-3.2°C 59% 3.1 mph SSW5.0 kmh SSW 3.0 mph4.8 kmh 29.45 in997.3 mb - 0.00 in0.0 mm 0.00 in0.0 mm
05:00 PM 38.9°F3.8°C 27.4°F-2.6°C 63% 4.1 mph S6.6 kmh S 7.0 mph11.3 kmh 29.45 in997.3 mb - 0.00 in0.0 mm 0.00 in0.0 mm
05:15 PM 38.8°F3.8°C 27.3°F-2.6°C 63% 6.3 mph SSE10.1 kmh SSE 9.0 mph14.5 kmh 29.45 in997.3 mb - 0.00 in0.0 mm 0.00 in0.0 mm
05:30 PM 38.2°F3.4°C 27.8°F-2.3°C 66% 2.7 mph S4.3 kmh S 5.0 mph8.0 kmh 29.45 in997.3 mb - 0.00 in0.0 mm 0.00 in0.0 mm
05:45 PM 37.0°F2.8°C 28.9°F-1.7°C 72% 3.5 mph E5.6 kmh E 8.0 mph12.9 kmh 29.46 in997.6 mb - 0.00 in0.0 mm 0.00 in0.0 mm
06:00 PM 35.5°F1.9°C 29.6°F-1.3°C 79% 4.2 mph S6.8 kmh S 4.0 mph6.4 kmh 29.46 in997.6 mb - 0.00 in0.0 mm 0.00 in0.0 mm
06:15 PM 35.1°F1.7°C 29.9°F-1.2°C 81% 2.4 mph SSE3.9 kmh SSE 3.0 mph4.8 kmh 29.46 in997.6 mb - 0.00 in0.0 mm 0.00 in0.0 mm
06:30 PM 35.0°F1.7°C 29.5°F-1.4°C 80% 2.7 mph SW4.3 kmh SW 6.0 mph9.7 kmh 29.45 in997.3 mb - 0.00 in0.0 mm 0.00 in0.0 mm
06:45 PM 35.1°F1.7°C 29.2°F-1.6°C 79% 2.4 mph S3.9 kmh S 7.0 mph11.3 kmh 29.46 in997.6 mb - 0.00 in0.0 mm 0.00 in0.0 mm
07:00 PM 35.3°F1.8°C 28.1°F-2.2°C 75% 1.9 mph S3.1 kmh S 5.0 mph8.0 kmh 29.46 in997.6 mb - 0.00 in0.0 mm 0.00 in0.0 mm
07:15 PM 35.2°F1.8°C 27.7°F-2.4°C 74% 3.5 mph SSW5.6 kmh SSW 7.0 mph11.3 kmh 29.46 in997.6 mb - 0.00 in0.0 mm 0.00 in0.0 mm
07:30 PM 35.1°F1.7°C 27.7°F-2.4°C 74% 6.7 mph SSW10.8 kmh SSW 5.0 mph8.0 kmh 29.46 in997.6 mb - 0.00 in0.0 mm 0.00 in0.0 mm
07:45 PM 35.0°F1.7°C 27.5°F-2.5°C 74% 1.7 mph S2.7 kmh S 6.0 mph9.7 kmh 29.47 in998.0 mb - 0.00 in0.0 mm 0.00 in0.0 mm
08:00 PM 34.8°F1.6°C 27.3°F-2.6°C 74% 3.3 mph SW5.3 kmh SW 7.0 mph11.3 kmh 29.47 in998.0 mb - 0.00 in0.0 mm 0.00 in0.0 mm
08:15 PM 34.7°F1.5°C 27.3°F-2.6°C 74% 3.4 mph NE5.5 kmh NE 4.0 mph6.4 kmh 29.47 in998.0 mb - 0.00 in0.0 mm 0.00 in0.0 mm
08:30 PM 34.6°F1.4°C 27.2°F-2.7°C 74% 1.0 mph SW1.6 kmh SW 3.0 mph4.8 kmh 29.48 in998.3 mb - 0.00 in0.0 mm 0.00 in0.0 mm
08:45 PM 34.5°F1.4°C 27.1°F-2.7°C 74% 1.2 mph WSW1.9 kmh WSW 1.0 mph1.6 kmh 29.48 in998.3 mb - 0.00 in0.0 mm 0.00 in0.0 mm
09:00 PM 34.3°F1.3°C 27.2°F-2.7°C 75% 1.8 mph S2.9 kmh S 4.0 mph6.4 kmh 29.48 in998.3 mb - 0.00 in0.0 mm 0.00 in0.0 mm
09:15 PM 34.2°F1.2°C 27.1°F-2.7°C 75% 2.4 mph SW3.9 kmh SW 8.0 mph12.9 kmh 29.48 in998.3 mb - 0.00 in0.0 mm 0.00 in0.0 mm
09:30 PM 34.1°F1.2°C 27.0°F-2.8°C 75% 3.5 mph WSW5.6 kmh WSW 9.0 mph14.5 kmh 29.48 in998.3 mb - 0.00 in0.0 mm 0.00 in0.0 mm
09:45 PM 34.2°F1.2°C 26.8°F-2.9°C 74% 3.6 mph SW5.8 kmh SW 5.0 mph8.0 kmh 29.48 in998.3 mb - 0.00 in0.0 mm 0.00 in0.0 mm
10:00 PM 34.3°F1.3°C 26.9°F-2.8°C 74% 2.1 mph S3.4 kmh S 6.0 mph9.7 kmh 29.48 in998.3 mb - 0.00 in0.0 mm 0.00 in0.0 mm
10:15 PM 34.2°F1.2°C 26.8°F-2.9°C 74% 4.0 mph SSE6.4 kmh SSE 10.0 mph16.1 kmh 29.48 in998.3 mb - 0.00 in0.0 mm 0.00 in0.0 mm
10:30 PM 34.0°F1.1°C 27.2°F-2.7°C 76% 4.2 mph SSE6.8 kmh SSE 16.0 mph25.7 kmh 29.48 in998.3 mb - 0.00 in0.0 mm 0.00 in0.0 mm
10:45 PM 33.7°F0.9°C 27.3°F-2.6°C 77% 5.2 mph WSW8.4 kmh WSW 12.0 mph19.3 kmh 29.48 in998.3 mb - 0.00 in0.0 mm 0.00 in0.0 mm
11:00 PM 33.5°F0.8°C 27.7°F-2.4°C 79% 1.0 mph SW1.6 kmh SW 6.0 mph9.7 kmh 29.48 in998.3 mb - 0.00 in0.0 mm 0.00 in0.0 mm
11:15 PM 33.3°F0.7°C 28.1°F-2.2°C 81% 6.2 mph W10.0 kmh W 9.0 mph14.5 kmh 29.48 in998.3 mb - 0.00 in0.0 mm 0.00 in0.0 mm
11:30 PM 33.3°F0.7°C 27.8°F-2.3°C 80% 3.5 mph N5.6 kmh N 5.0 mph8.0 kmh 29.48 in998.3 mb - 0.00 in0.0 mm 0.00 in0.0 mm
11:45 PM 33.1°F0.6°C 27.6°F-2.4°C 80% 0.7 mph S1.1 kmh S 11.0 mph17.7 kmh 29.48 in998.3 mb - 0.00 in0.0 mm 0.00 in0.0 mm